sensor_id;sensor_type;location;lat;lon;timestamp;P1;durP1;ratioP1;P2;durP2;ratioP2
11427;SDS011;5770;44.504;11.346;2023-04-03T00:02:14;4.55;;;2.50;;
11427;SDS011;5770;44.504;11.346;2023-04-03T00:04:42;8.65;;;2.83;;
11427;SDS011;5770;44.504;11.346;2023-04-03T00:07:09;3.75;;;2.50;;
11427;SDS011;5770;44.504;11.346;2023-04-03T00:09:37;3.05;;;2.70;;
11427;SDS011;5770;44.504;11.346;2023-04-03T00:12:04;6.00;;;2.85;;
11427;SDS011;5770;44.504;11.346;2023-04-03T00:14:32;3.20;;;2.90;;
11427;SDS011;5770;44.504;11.346;2023-04-03T00:17:00;3.10;;;2.40;;
11427;SDS011;5770;44.504;11.346;2023-04-03T00:19:28;2.33;;;2.13;;
11427;SDS011;5770;44.504;11.346;2023-04-03T00:21:55;4.70;;;2.53;;
11427;SDS011;5770;44.504;11.346;2023-04-03T00:24:22;2.88;;;2.60;;
11427;SDS011;5770;44.504;11.346;2023-04-03T00:26:49;3.05;;;2.55;;
11427;SDS011;5770;44.504;11.346;2023-04-03T00:29:17;3.00;;;2.42;;
11427;SDS011;5770;44.504;11.346;2023-04-03T00:31:44;3.75;;;2.83;;
11427;SDS011;5770;44.504;11.346;2023-04-03T00:34:13;3.60;;;2.38;;
11427;SDS011;5770;44.504;11.346;2023-04-03T00:36:40;3.85;;;2.30;;
11427;SDS011;5770;44.504;11.346;2023-04-03T00:39:07;3.55;;;2.60;;
11427;SDS011;5770;44.504;11.346;2023-04-03T00:41:34;2.90;;;2.47;;
11427;SDS011;5770;44.504;11.346;2023-04-03T00:44:17;3.38;;;2.30;;
11427;SDS011;5770;44.504;11.346;2023-04-03T00:46:45;6.13;;;2.72;;
11427;SDS011;5770;44.504;11.346;2023-04-03T00:49:13;3.53;;;2.35;;
11427;SDS011;5770;44.504;11.346;2023-04-03T00:51:41;3.38;;;2.50;;
11427;SDS011;5770;44.504;11.346;2023-04-03T00:54:08;3.72;;;2.70;;
11427;SDS011;5770;44.504;11.346;2023-04-03T00:56:35;3.30;;;2.70;;
11427;SDS011;5770;44.504;11.346;2023-04-03T00:59:03;3.22;;;2.80;;
11427;SDS011;5770;44.504;11.346;2023-04-03T01:01:31;2.80;;;2.40;;
11427;SDS011;5770;44.504;11.346;2023-04-03T01:03:58;3.42;;;2.63;;
11427;SDS011;5770;44.504;11.346;2023-04-03T01:06:30;4.57;;;2.65;;
11427;SDS011;5770;44.504;11.346;2023-04-03T01:08:58;7.22;;;2.85;;
11427;SDS011;5770;44.504;11.346;2023-04-03T01:11:26;4.32;;;2.70;;
11427;SDS011;5770;44.504;11.346;2023-04-03T01:13:53;2.75;;;2.55;;
11427;SDS011;5770;44.504;11.346;2023-04-03T01:16:20;4.22;;;2.85;;
11427;SDS011;5770;44.504;11.346;2023-04-03T01:18:48;4.03;;;2.88;;
11427;SDS011;5770;44.504;11.346;2023-04-03T01:24:14;3.55;;;2.75;;
11427;SDS011;5770;44.504;11.346;2023-04-03T01:26:49;3.40;;;2.88;;
11427;SDS011;5770;44.504;11.346;2023-04-03T01:29:16;3.83;;;2.90;;
11427;SDS011;5770;44.504;11.346;2023-04-03T01:31:47;4.10;;;2.80;;
11427;SDS011;5770;44.504;11.346;2023-04-03T01:34:14;3.33;;;2.90;;
11427;SDS011;5770;44.504;11.346;2023-04-03T01:36:41;3.75;;;2.83;;
11427;SDS011;5770;44.504;11.346;2023-04-03T01:39:09;3.40;;;2.90;;
11427;SDS011;5770;44.504;11.346;2023-04-03T01:41:36;3.83;;;3.05;;
11427;SDS011;5770;44.504;11.346;2023-04-03T01:44:04;3.10;;;2.85;;
11427;SDS011;5770;44.504;11.346;2023-04-03T01:46:32;4.85;;;2.72;;
11427;SDS011;5770;44.504;11.346;2023-04-03T01:49:01;3.13;;;2.72;;
11427;SDS011;5770;44.504;11.346;2023-04-03T01:51:28;3.42;;;2.75;;
11427;SDS011;5770;44.504;11.346;2023-04-03T01:53:56;4.25;;;2.78;;
11427;SDS011;5770;44.504;11.346;2023-04-03T01:56:23;4.82;;;2.85;;
11427;SDS011;5770;44.504;11.346;2023-04-03T01:58:50;3.80;;;2.92;;
11427;SDS011;5770;44.504;11.346;2023-04-03T02:01:17;3.17;;;2.88;;
11427;SDS011;5770;44.504;11.346;2023-04-03T02:03:45;3.03;;;2.72;;
11427;SDS011;5770;44.504;11.346;2023-04-03T02:06:13;3.08;;;2.78;;
11427;SDS011;5770;44.504;11.346;2023-04-03T02:08:40;5.90;;;2.83;;
11427;SDS011;5770;44.504;11.346;2023-04-03T02:11:08;4.30;;;2.92;;
11427;SDS011;5770;44.504;11.346;2023-04-03T02:13:35;4.50;;;2.67;;
11427;SDS011;5770;44.504;11.346;2023-04-03T02:16:06;4.30;;;3.10;;
11427;SDS011;5770;44.504;11.346;2023-04-03T02:18:33;3.08;;;2.63;;
11427;SDS011;5770;44.504;11.346;2023-04-03T02:21:00;4.65;;;3.08;;
11427;SDS011;5770;44.504;11.346;2023-04-03T02:23:29;2.80;;;2.60;;
11427;SDS011;5770;44.504;11.346;2023-04-03T02:26:02;3.75;;;2.85;;
11427;SDS011;5770;44.504;11.346;2023-04-03T02:28:30;3.40;;;3.10;;
11427;SDS011;5770;44.504;11.346;2023-04-03T02:30:57;5.00;;;2.80;;
11427;SDS011;5770;44.504;11.346;2023-04-03T02:33:24;4.03;;;2.97;;
11427;SDS011;5770;44.504;11.346;2023-04-03T02:35:52;4.72;;;2.95;;
11427;SDS011;5770;44.504;11.346;2023-04-03T02:38:20;3.53;;;2.70;;
11427;SDS011;5770;44.504;11.346;2023-04-03T02:40:49;3.10;;;2.80;;
11427;SDS011;5770;44.504;11.346;2023-04-03T02:43:17;2.70;;;2.50;;
11427;SDS011;5770;44.504;11.346;2023-04-03T02:45:45;3.38;;;2.70;;
11427;SDS011;5770;44.504;11.346;2023-04-03T02:48:13;2.92;;;2.63;;
11427;SDS011;5770;44.504;11.346;2023-04-03T02:50:41;4.28;;;2.70;;
11427;SDS011;5770;44.504;11.346;2023-04-03T02:53:09;4.97;;;2.60;;
11427;SDS011;5770;44.504;11.346;2023-04-03T02:55:36;3.10;;;2.70;;
11427;SDS011;5770;44.504;11.346;2023-04-03T02:58:04;2.92;;;2.53;;
11427;SDS011;5770;44.504;11.346;2023-04-03T03:00:31;2.85;;;2.47;;
11427;SDS011;5770;44.504;11.346;2023-04-03T03:02:59;3.33;;;2.70;;
11427;SDS011;5770;44.504;11.346;2023-04-03T03:05:26;3.78;;;2.78;;
11427;SDS011;5770;44.504;11.346;2023-04-03T03:07:54;4.30;;;2.95;;
11427;SDS011;5770;44.504;11.346;2023-04-03T03:10:21;4.65;;;2.80;;
11427;SDS011;5770;44.504;11.346;2023-04-03T03:12:49;2.33;;;2.15;;
11427;SDS011;5770;44.504;11.346;2023-04-03T03:15:18;5.70;;;2.92;;
11427;SDS011;5770;44.504;11.346;2023-04-03T03:17:45;3.20;;;2.80;;
11427;SDS011;5770;44.504;11.346;2023-04-03T03:20:12;2.88;;;2.47;;
11427;SDS011;5770;44.504;11.346;2023-04-03T03:22:40;2.97;;;2.65;;
11427;SDS011;5770;44.504;11.346;2023-04-03T03:25:08;2.85;;;2.45;;
11427;SDS011;5770;44.504;11.346;2023-04-03T03:27:35;3.65;;;3.10;;
11427;SDS011;5770;44.504;11.346;2023-04-03T03:30:03;4.13;;;2.55;;
11427;SDS011;5770;44.504;11.346;2023-04-03T03:32:32;3.05;;;2.75;;
11427;SDS011;5770;44.504;11.346;2023-04-03T03:34:59;6.38;;;2.88;;
11427;SDS011;5770;44.504;11.346;2023-04-03T03:37:26;3.20;;;2.88;;
11427;SDS011;5770;44.504;11.346;2023-04-03T03:39:53;4.53;;;3.00;;
11427;SDS011;5770;44.504;11.346;2023-04-03T03:42:21;4.10;;;2.58;;
11427;SDS011;5770;44.504;11.346;2023-04-03T03:44:48;3.53;;;2.78;;
11427;SDS011;5770;44.504;11.346;2023-04-03T03:47:16;6.95;;;3.08;;
11427;SDS011;5770;44.504;11.346;2023-04-03T03:49:45;4.55;;;2.90;;
11427;SDS011;5770;44.504;11.346;2023-04-03T03:52:12;4.15;;;2.90;;
11427;SDS011;5770;44.504;11.346;2023-04-03T03:54:40;5.85;;;3.10;;
11427;SDS011;5770;44.504;11.346;2023-04-03T03:57:07;4.93;;;3.45;;
11427;SDS011;5770;44.504;11.346;2023-04-03T03:59:34;5.85;;;3.00;;
11427;SDS011;5770;44.504;11.346;2023-04-03T04:02:01;6.20;;;3.50;;
11427;SDS011;5770;44.504;11.346;2023-04-03T04:04:28;7.43;;;3.55;;
11427;SDS011;5770;44.504;11.346;2023-04-03T04:06:57;5.65;;;3.40;;
11427;SDS011;5770;44.504;11.346;2023-04-03T04:09:25;4.00;;;2.80;;
11427;SDS011;5770;44.504;11.346;2023-04-03T04:11:52;3.33;;;2.67;;
11427;SDS011;5770;44.504;11.346;2023-04-03T04:14:20;4.90;;;3.15;;
11427;SDS011;5770;44.504;11.346;2023-04-03T04:16:47;3.85;;;2.80;;
11427;SDS011;5770;44.504;11.346;2023-04-03T04:19:14;4.35;;;3.10;;
11427;SDS011;5770;44.504;11.346;2023-04-03T04:21:42;3.00;;;2.70;;
11427;SDS011;5770;44.504;11.346;2023-04-03T04:24:11;7.97;;;3.30;;
11427;SDS011;5770;44.504;11.346;2023-04-03T04:26:38;8.55;;;3.70;;
11427;SDS011;5770;44.504;11.346;2023-04-03T04:29:05;6.13;;;3.58;;
11427;SDS011;5770;44.504;11.346;2023-04-03T04:31:32;10.90;;;3.47;;
11427;SDS011;5770;44.504;11.346;2023-04-03T04:34:00;7.40;;;3.53;;
11427;SDS011;5770;44.504;11.346;2023-04-03T04:36:27;5.13;;;2.92;;
11427;SDS011;5770;44.504;11.346;2023-04-03T04:38:54;4.10;;;3.13;;
11427;SDS011;5770;44.504;11.346;2023-04-03T04:41:24;7.20;;;3.03;;
11427;SDS011;5770;44.504;11.346;2023-04-03T04:43:52;7.50;;;3.22;;
11427;SDS011;5770;44.504;11.346;2023-04-03T04:46:19;5.40;;;3.08;;
11427;SDS011;5770;44.504;11.346;2023-04-03T04:48:48;7.75;;;3.40;;
11427;SDS011;5770;44.504;11.346;2023-04-03T04:51:16;9.75;;;4.10;;
11427;SDS011;5770;44.504;11.346;2023-04-03T04:53:43;8.38;;;3.40;;
11427;SDS011;5770;44.504;11.346;2023-04-03T04:56:11;6.72;;;3.40;;
11427;SDS011;5770;44.504;11.346;2023-04-03T04:58:39;5.20;;;3.50;;
11427;SDS011;5770;44.504;11.346;2023-04-03T05:01:07;7.95;;;3.60;;
11427;SDS011;5770;44.504;11.346;2023-04-03T05:03:35;8.90;;;3.65;;
11427;SDS011;5770;44.504;11.346;2023-04-03T05:06:02;4.72;;;3.40;;
11427;SDS011;5770;44.504;11.346;2023-04-03T05:08:30;8.20;;;3.75;;
11427;SDS011;5770;44.504;11.346;2023-04-03T05:10:57;5.10;;;4.20;;
11427;SDS011;5770;44.504;11.346;2023-04-03T05:16:48;15.35;;;8.25;;
11427;SDS011;5770;44.504;11.346;2023-04-03T05:19:18;15.60;;;8.52;;
11427;SDS011;5770;44.504;11.346;2023-04-03T05:21:45;9.30;;;7.40;;
11427;SDS011;5770;44.504;11.346;2023-04-03T05:24:13;12.70;;;7.85;;
11427;SDS011;5770;44.504;11.346;2023-04-03T05:26:40;11.35;;;6.65;;
11427;SDS011;5770;44.504;11.346;2023-04-03T05:29:07;9.35;;;6.75;;
11427;SDS011;5770;44.504;11.346;2023-04-03T05:31:35;10.80;;;6.72;;
11427;SDS011;5770;44.504;11.346;2023-04-03T05:34:04;11.63;;;6.63;;
11427;SDS011;5770;44.504;11.346;2023-04-03T06:15:17;13.02;;;5.88;;
11427;SDS011;5770;44.504;11.346;2023-04-03T06:17:45;8.93;;;5.30;;
11427;SDS011;5770;44.504;11.346;2023-04-03T06:20:12;12.13;;;5.60;;
11427;SDS011;5770;44.504;11.346;2023-04-03T06:22:43;10.48;;;5.93;;
11427;SDS011;5770;44.504;11.346;2023-04-03T06:25:11;9.23;;;5.60;;
11427;SDS011;5770;44.504;11.346;2023-04-03T06:27:38;9.32;;;5.82;;
11427;SDS011;5770;44.504;11.346;2023-04-03T06:30:05;12.02;;;6.18;;
11427;SDS011;5770;44.504;11.346;2023-04-03T06:32:34;10.90;;;6.60;;
11427;SDS011;5770;44.504;11.346;2023-04-03T06:35:01;7.35;;;6.40;;
11427;SDS011;5770;44.504;11.346;2023-04-03T06:37:29;6.97;;;6.28;;
11427;SDS011;5770;44.504;11.346;2023-04-03T06:39:57;9.13;;;6.22;;
11427;SDS011;5770;44.504;11.346;2023-04-03T06:42:25;9.20;;;6.53;;
11427;SDS011;5770;44.504;11.346;2023-04-03T06:44:52;9.48;;;6.75;;
11427;SDS011;5770;44.504;11.346;2023-04-03T06:47:20;8.57;;;6.90;;
11427;SDS011;5770;44.504;11.346;2023-04-03T06:49:48;8.10;;;5.80;;
11427;SDS011;5770;44.504;11.346;2023-04-03T06:52:15;9.05;;;6.43;;
11427;SDS011;5770;44.504;11.346;2023-04-03T06:54:42;8.45;;;7.35;;
11427;SDS011;5770;44.504;11.346;2023-04-03T06:57:10;7.25;;;6.55;;
11427;SDS011;5770;44.504;11.346;2023-04-03T06:59:37;8.38;;;6.75;;
11427;SDS011;5770;44.504;11.346;2023-04-03T07:02:05;12.10;;;7.45;;
11427;SDS011;5770;44.504;11.346;2023-04-03T07:04:32;14.57;;;7.57;;
11427;SDS011;5770;44.504;11.346;2023-04-03T07:07:01;7.75;;;6.93;;
11427;SDS011;5770;44.504;11.346;2023-04-03T07:09:28;10.20;;;6.45;;
11427;SDS011;5770;44.504;11.346;2023-04-03T07:11:55;9.95;;;6.40;;
11427;SDS011;5770;44.504;11.346;2023-04-03T07:14:22;7.82;;;6.65;;
11427;SDS011;5770;44.504;11.346;2023-04-03T07:16:50;10.70;;;6.93;;
11427;SDS011;5770;44.504;11.346;2023-04-03T07:19:17;11.05;;;7.28;;
11427;SDS011;5770;44.504;11.346;2023-04-03T07:21:44;7.97;;;6.70;;
11427;SDS011;5770;44.504;11.346;2023-04-03T07:24:13;11.00;;;6.93;;
11427;SDS011;5770;44.504;11.346;2023-04-03T07:26:40;7.75;;;7.03;;
11427;SDS011;5770;44.504;11.346;2023-04-03T07:29:08;8.52;;;7.72;;
11427;SDS011;5770;44.504;11.346;2023-04-03T07:31:35;7.50;;;6.70;;
11427;SDS011;5770;44.504;11.346;2023-04-03T07:34:02;9.25;;;7.72;;
11427;SDS011;5770;44.504;11.346;2023-04-03T07:36:29;8.20;;;7.15;;
11427;SDS011;5770;44.504;11.346;2023-04-03T07:38:58;9.00;;;8.10;;
11427;SDS011;5770;44.504;11.346;2023-04-03T07:41:27;9.48;;;8.10;;
11427;SDS011;5770;44.504;11.346;2023-04-03T07:43:55;10.63;;;8.48;;
11427;SDS011;5770;44.504;11.346;2023-04-03T07:46:22;10.77;;;9.25;;
11427;SDS011;5770;44.504;11.346;2023-04-03T07:48:49;10.05;;;9.02;;
11427;SDS011;5770;44.504;11.346;2023-04-03T07:51:16;13.30;;;9.25;;
11427;SDS011;5770;44.504;11.346;2023-04-03T07:53:44;13.27;;;9.43;;
11427;SDS011;5770;44.504;11.346;2023-04-03T07:56:11;12.35;;;9.40;;
11427;SDS011;5770;44.504;11.346;2023-04-03T07:58:40;13.57;;;9.48;;
11427;SDS011;5770;44.504;11.346;2023-04-03T08:01:07;11.95;;;10.13;;
11427;SDS011;5770;44.504;11.346;2023-04-03T08:03:34;16.70;;;10.55;;
11427;SDS011;5770;44.504;11.346;2023-04-03T08:06:03;12.32;;;9.75;;
11427;SDS011;5770;44.504;11.346;2023-04-03T08:08:30;10.13;;;9.07;;
11427;SDS011;5770;44.504;11.346;2023-04-03T08:10:58;12.93;;;9.30;;
11427;SDS011;5770;44.504;11.346;2023-04-03T08:13:27;18.80;;;9.80;;
11427;SDS011;5770;44.504;11.346;2023-04-03T08:15:56;15.07;;;9.35;;
11427;SDS011;5770;44.504;11.346;2023-04-03T08:18:24;13.13;;;9.30;;
11427;SDS011;5770;44.504;11.346;2023-04-03T08:20:51;10.30;;;9.05;;
11427;SDS011;5770;44.504;11.346;2023-04-03T08:23:18;12.15;;;8.63;;
11427;SDS011;5770;44.504;11.346;2023-04-03T08:25:46;9.52;;;8.57;;
11427;SDS011;5770;44.504;11.346;2023-04-03T08:28:13;9.32;;;7.25;;
11427;SDS011;5770;44.504;11.346;2023-04-03T08:30:40;8.10;;;7.00;;
11427;SDS011;5770;44.504;11.346;2023-04-03T08:33:10;9.38;;;6.47;;
11427;SDS011;5770;44.504;11.346;2023-04-03T08:35:40;7.82;;;7.07;;
11427;SDS011;5770;44.504;11.346;2023-04-03T08:38:07;7.97;;;6.90;;
11427;SDS011;5770;44.504;11.346;2023-04-03T08:40:34;11.60;;;6.20;;
11427;SDS011;5770;44.504;11.346;2023-04-03T08:43:03;9.25;;;5.95;;
11427;SDS011;5770;44.504;11.346;2023-04-03T08:45:50;10.23;;;8.10;;
11427;SDS011;5770;44.504;11.346;2023-04-03T08:48:20;11.57;;;8.02;;
11427;SDS011;5770;44.504;11.346;2023-04-03T08:50:49;9.73;;;7.68;;
11427;SDS011;5770;44.504;11.346;2023-04-03T08:53:17;9.57;;;7.55;;
11427;SDS011;5770;44.504;11.346;2023-04-03T08:55:46;9.50;;;6.25;;
11427;SDS011;5770;44.504;11.346;2023-04-03T08:58:15;11.13;;;5.20;;
11427;SDS011;5770;44.504;11.346;2023-04-03T09:00:45;5.65;;;5.00;;
11427;SDS011;5770;44.504;11.346;2023-04-03T09:03:15;7.75;;;5.53;;
11427;SDS011;5770;44.504;11.346;2023-04-03T09:05:46;9.10;;;6.20;;
11427;SDS011;5770;44.504;11.346;2023-04-03T09:08:23;9.60;;;5.93;;
11427;SDS011;5770;44.504;11.346;2023-04-03T09:10:57;7.85;;;6.00;;
11427;SDS011;5770;44.504;11.346;2023-04-03T09:13:31;10.18;;;6.68;;
11427;SDS011;5770;44.504;11.346;2023-04-03T09:16:03;6.65;;;5.45;;
11427;SDS011;5770;44.504;11.346;2023-04-03T09:18:32;5.55;;;4.60;;
11427;SDS011;5770;44.504;11.346;2023-04-03T09:21:08;10.43;;;5.15;;
11427;SDS011;5770;44.504;11.346;2023-04-03T09:23:42;7.55;;;5.03;;
11427;SDS011;5770;44.504;11.346;2023-04-03T09:26:13;5.68;;;4.15;;
11427;SDS011;5770;44.504;11.346;2023-04-03T09:28:41;10.30;;;4.93;;
11427;SDS011;5770;44.504;11.346;2023-04-03T09:31:13;8.70;;;4.65;;
11427;SDS011;5770;44.504;11.346;2023-04-03T09:33:46;8.27;;;4.30;;
11427;SDS011;5770;44.504;11.346;2023-04-03T09:36:24;7.80;;;4.20;;
11427;SDS011;5770;44.504;11.346;2023-04-03T09:39:04;6.32;;;4.32;;
11427;SDS011;5770;44.504;11.346;2023-04-03T09:41:33;6.88;;;4.38;;
11427;SDS011;5770;44.504;11.346;2023-04-03T09:44:00;7.43;;;4.60;;
11427;SDS011;5770;44.504;11.346;2023-04-03T09:46:31;11.10;;;4.75;;
11427;SDS011;5770;44.504;11.346;2023-04-03T09:49:01;6.75;;;4.85;;
11427;SDS011;5770;44.504;11.346;2023-04-03T09:51:30;6.22;;;4.95;;
11427;SDS011;5770;44.504;11.346;2023-04-03T09:53:57;6.97;;;4.85;;
11427;SDS011;5770;44.504;11.346;2023-04-03T09:56:25;9.45;;;5.70;;
11427;SDS011;5770;44.504;11.346;2023-04-03T09:59:06;9.98;;;5.75;;
11427;SDS011;5770;44.504;11.346;2023-04-03T10:01:39;10.48;;;5.32;;
11427;SDS011;5770;44.504;11.346;2023-04-03T10:04:09;8.20;;;5.97;;
11427;SDS011;5770;44.504;11.346;2023-04-03T10:06:39;6.35;;;5.30;;
11427;SDS011;5770;44.504;11.346;2023-04-03T10:09:16;9.60;;;6.00;;
11427;SDS011;5770;44.504;11.346;2023-04-03T10:11:59;8.93;;;5.38;;
11427;SDS011;5770;44.504;11.346;2023-04-03T10:14:29;9.27;;;5.40;;
11427;SDS011;5770;44.504;11.346;2023-04-03T10:16:59;6.18;;;4.32;;
11427;SDS011;5770;44.504;11.346;2023-04-03T10:19:34;6.75;;;4.40;;
11427;SDS011;5770;44.504;11.346;2023-04-03T10:22:07;7.70;;;4.20;;
11427;SDS011;5770;44.504;11.346;2023-04-03T10:24:39;7.40;;;4.15;;
11427;SDS011;5770;44.504;11.346;2023-04-03T10:27:10;7.00;;;3.60;;
11427;SDS011;5770;44.504;11.346;2023-04-03T10:29:46;7.90;;;3.80;;
11427;SDS011;5770;44.504;11.346;2023-04-03T10:32:26;7.47;;;3.50;;
11427;SDS011;5770;44.504;11.346;2023-04-03T10:34:57;7.07;;;3.17;;
11427;SDS011;5770;44.504;11.346;2023-04-03T10:37:38;5.80;;;2.50;;
11427;SDS011;5770;44.504;11.346;2023-04-03T10:40:20;5.90;;;2.50;;
11427;SDS011;5770;44.504;11.346;2023-04-03T10:42:52;6.18;;;2.45;;
11427;SDS011;5770;44.504;11.346;2023-04-03T10:45:24;7.95;;;2.83;;
11427;SDS011;5770;44.504;11.346;2023-04-03T10:47:58;9.40;;;2.88;;
11427;SDS011;5770;44.504;11.346;2023-04-03T10:50:29;6.45;;;2.85;;
11427;SDS011;5770;44.504;11.346;2023-04-03T10:53:03;4.45;;;2.53;;
11427;SDS011;5770;44.504;11.346;2023-04-03T10:55:36;7.50;;;2.63;;
11427;SDS011;5770;44.504;11.346;2023-04-03T10:58:04;6.72;;;2.90;;
11427;SDS011;5770;44.504;11.346;2023-04-03T11:00:35;6.70;;;2.80;;
11427;SDS011;5770;44.504;11.346;2023-04-03T11:03:06;9.80;;;3.38;;
11427;SDS011;5770;44.504;11.346;2023-04-03T11:05:39;4.82;;;2.15;;
11427;SDS011;5770;44.504;11.346;2023-04-03T11:08:13;4.93;;;2.22;;
11427;SDS011;5770;44.504;11.346;2023-04-03T11:10:43;5.10;;;2.10;;
11427;SDS011;5770;44.504;11.346;2023-04-03T11:13:13;3.92;;;2.50;;
11427;SDS011;5770;44.504;11.346;2023-04-03T11:15:43;4.05;;;2.08;;
11427;SDS011;5770;44.504;11.346;2023-04-03T11:18:13;5.45;;;2.28;;
11427;SDS011;5770;44.504;11.346;2023-04-03T11:20:53;2.42;;;1.63;;
11427;SDS011;5770;44.504;11.346;2023-04-03T11:23:28;5.05;;;2.05;;
11427;SDS011;5770;44.504;11.346;2023-04-03T11:25:59;7.80;;;1.88;;
11427;SDS011;5770;44.504;11.346;2023-04-03T11:28:28;3.78;;;1.70;;
11427;SDS011;5770;44.504;11.346;2023-04-03T11:30:58;2.75;;;1.67;;
11427;SDS011;5770;44.504;11.346;2023-04-03T11:33:28;4.10;;;1.98;;
11427;SDS011;5770;44.504;11.346;2023-04-03T11:36:03;7.63;;;2.05;;
11427;SDS011;5770;44.504;11.346;2023-04-03T11:38:36;3.22;;;1.80;;
11427;SDS011;5770;44.504;11.346;2023-04-03T11:41:08;4.70;;;1.98;;
11427;SDS011;5770;44.504;11.346;2023-04-03T11:43:39;5.13;;;1.88;;
11427;SDS011;5770;44.504;11.346;2023-04-03T11:46:08;6.20;;;2.13;;
11427;SDS011;5770;44.504;11.346;2023-04-03T11:48:48;4.53;;;1.75;;
11427;SDS011;5770;44.504;11.346;2023-04-03T12:00:20;3.38;;;2.00;;
11427;SDS011;5770;44.504;11.346;2023-04-03T12:09:22;2.50;;;1.80;;
11427;SDS011;5770;44.504;11.346;2023-04-03T12:11:49;2.55;;;1.60;;
11427;SDS011;5770;44.504;11.346;2023-04-03T12:14:18;2.95;;;1.50;;
11427;SDS011;5770;44.504;11.346;2023-04-03T12:16:48;2.42;;;1.50;;
11427;SDS011;5770;44.504;11.346;2023-04-03T12:19:30;2.08;;;1.33;;
11427;SDS011;5770;44.504;11.346;2023-04-03T12:22:09;3.67;;;1.70;;
11427;SDS011;5770;44.504;11.346;2023-04-03T12:24:39;2.42;;;1.83;;
11427;SDS011;5770;44.504;11.346;2023-04-03T12:27:16;3.05;;;1.75;;
11427;SDS011;5770;44.504;11.346;2023-04-03T12:29:55;3.45;;;1.58;;
11427;SDS011;5770;44.504;11.346;2023-04-03T12:32:34;10.43;;;1.80;;
11427;SDS011;5770;44.504;11.346;2023-04-03T12:35:20;2.63;;;1.70;;
11427;SDS011;5770;44.504;11.346;2023-04-03T12:37:51;3.10;;;1.55;;
11427;SDS011;5770;44.504;11.346;2023-04-03T12:40:50;1.90;;;1.35;;
11427;SDS011;5770;44.504;11.346;2023-04-03T12:43:31;5.05;;;1.50;;
11427;SDS011;5770;44.504;11.346;2023-04-03T12:46:02;3.25;;;1.60;;
11427;SDS011;5770;44.504;11.346;2023-04-03T12:48:32;3.58;;;1.90;;
11427;SDS011;5770;44.504;11.346;2023-04-03T12:51:00;4.60;;;1.80;;
11427;SDS011;5770;44.504;11.346;2023-04-03T12:53:31;3.08;;;1.50;;
11427;SDS011;5770;44.504;11.346;2023-04-03T12:58:51;4.60;;;1.55;;
11427;SDS011;5770;44.504;11.346;2023-04-03T13:01:20;3.17;;;2.20;;
11427;SDS011;5770;44.504;11.346;2023-04-03T13:03:51;3.53;;;1.75;;
11427;SDS011;5770;44.504;11.346;2023-04-03T13:06:21;1.80;;;1.40;;
11427;SDS011;5770;44.504;11.346;2023-04-03T13:08:49;8.18;;;2.00;;
11427;SDS011;5770;44.504;11.346;2023-04-03T13:11:17;3.38;;;1.60;;
11427;SDS011;5770;44.504;11.346;2023-04-03T13:13:56;3.80;;;1.42;;
11427;SDS011;5770;44.504;11.346;2023-04-03T13:16:24;1.42;;;1.33;;
11427;SDS011;5770;44.504;11.346;2023-04-03T13:18:55;6.50;;;1.90;;
11427;SDS011;5770;44.504;11.346;2023-04-03T13:21:23;2.28;;;1.50;;
11427;SDS011;5770;44.504;11.346;2023-04-03T13:23:53;1.75;;;1.42;;
11427;SDS011;5770;44.504;11.346;2023-04-03T13:26:21;6.45;;;1.50;;
11427;SDS011;5770;44.504;11.346;2023-04-03T13:28:49;3.08;;;1.40;;
11427;SDS011;5770;44.504;11.346;2023-04-03T13:31:18;3.95;;;1.70;;
11427;SDS011;5770;44.504;11.346;2023-04-03T13:33:53;2.33;;;1.45;;
11427;SDS011;5770;44.504;11.346;2023-04-03T13:36:23;1.55;;;1.33;;
11427;SDS011;5770;44.504;11.346;2023-04-03T13:38:57;4.57;;;1.55;;
11427;SDS011;5770;44.504;11.346;2023-04-03T13:41:26;3.08;;;1.60;;
11427;SDS011;5770;44.504;11.346;2023-04-03T13:44:15;4.78;;;1.48;;
11427;SDS011;5770;44.504;11.346;2023-04-03T13:46:43;3.60;;;1.48;;
11427;SDS011;5770;44.504;11.346;2023-04-03T13:49:20;4.72;;;1.50;;
11427;SDS011;5770;44.504;11.346;2023-04-03T13:51:49;4.20;;;1.45;;
11427;SDS011;5770;44.504;11.346;2023-04-03T13:54:19;4.07;;;1.98;;
11427;SDS011;5770;44.504;11.346;2023-04-03T13:56:52;3.20;;;1.63;;
11427;SDS011;5770;44.504;11.346;2023-04-03T13:59:22;2.28;;;1.50;;
11427;SDS011;5770;44.504;11.346;2023-04-03T14:01:52;1.83;;;1.38;;
11427;SDS011;5770;44.504;11.346;2023-04-03T14:04:21;1.75;;;1.23;;
11427;SDS011;5770;44.504;11.346;2023-04-03T14:06:52;2.28;;;1.52;;
11427;SDS011;5770;44.504;11.346;2023-04-03T14:09:20;2.42;;;1.40;;
11427;SDS011;5770;44.504;11.346;2023-04-03T14:11:47;6.03;;;1.52;;
11427;SDS011;5770;44.504;11.346;2023-04-03T14:14:16;3.60;;;1.52;;
11427;SDS011;5770;44.504;11.346;2023-04-03T14:16:47;3.20;;;1.40;;
11427;SDS011;5770;44.504;11.346;2023-04-03T14:19:18;4.53;;;1.77;;
11427;SDS011;5770;44.504;11.346;2023-04-03T14:21:47;2.13;;;1.50;;
11427;SDS011;5770;44.504;11.346;2023-04-03T14:24:17;4.15;;;1.63;;
11427;SDS011;5770;44.504;11.346;2023-04-03T14:26:45;2.83;;;1.60;;
11427;SDS011;5770;44.504;11.346;2023-04-03T14:29:13;3.13;;;1.77;;
11427;SDS011;5770;44.504;11.346;2023-04-03T14:31:40;1.85;;;1.60;;
11427;SDS011;5770;44.504;11.346;2023-04-03T14:34:09;3.75;;;1.60;;
11427;SDS011;5770;44.504;11.346;2023-04-03T14:36:37;4.30;;;1.40;;
11427;SDS011;5770;44.504;11.346;2023-04-03T14:39:06;4.25;;;1.45;;
11427;SDS011;5770;44.504;11.346;2023-04-03T14:41:35;2.03;;;1.80;;
11427;SDS011;5770;44.504;11.346;2023-04-03T14:44:02;2.85;;;1.98;;
11427;SDS011;5770;44.504;11.346;2023-04-03T14:46:31;2.08;;;1.50;;
11427;SDS011;5770;44.504;11.346;2023-04-03T14:49:00;2.97;;;1.75;;
11427;SDS011;5770;44.504;11.346;2023-04-03T14:51:27;3.85;;;1.77;;
11427;SDS011;5770;44.504;11.346;2023-04-03T14:53:55;6.57;;;1.73;;
11427;SDS011;5770;44.504;11.346;2023-04-03T14:56:22;4.20;;;1.80;;
11427;SDS011;5770;44.504;11.346;2023-04-03T14:58:54;3.67;;;1.85;;
11427;SDS011;5770;44.504;11.346;2023-04-03T15:01:23;3.85;;;1.55;;
11427;SDS011;5770;44.504;11.346;2023-04-03T15:03:50;3.53;;;1.40;;
11427;SDS011;5770;44.504;11.346;2023-04-03T15:06:17;5.13;;;1.80;;
11427;SDS011;5770;44.504;11.346;2023-04-03T15:08:45;2.47;;;1.77;;
11427;SDS011;5770;44.504;11.346;2023-04-03T15:11:13;6.85;;;1.80;;
11427;SDS011;5770;44.504;11.346;2023-04-03T15:13:41;4.40;;;1.70;;
11427;SDS011;5770;44.504;11.346;2023-04-03T15:16:12;4.72;;;1.80;;
11427;SDS011;5770;44.504;11.346;2023-04-03T15:18:41;3.45;;;1.70;;
11427;SDS011;5770;44.504;11.346;2023-04-03T15:21:09;2.65;;;1.65;;
11427;SDS011;5770;44.504;11.346;2023-04-03T15:23:36;1.50;;;1.40;;
11427;SDS011;5770;44.504;11.346;2023-04-03T15:26:04;1.85;;;1.40;;
11427;SDS011;5770;44.504;11.346;2023-04-03T15:28:32;2.35;;;1.55;;
11427;SDS011;5770;44.504;11.346;2023-04-03T15:31:00;2.47;;;1.90;;
11427;SDS011;5770;44.504;11.346;2023-04-03T15:33:29;6.25;;;2.20;;
11427;SDS011;5770;44.504;11.346;2023-04-03T15:35:57;3.00;;;1.92;;
11427;SDS011;5770;44.504;11.346;2023-04-03T15:38:24;4.53;;;2.08;;
11427;SDS011;5770;44.504;11.346;2023-04-03T15:40:52;3.72;;;1.65;;
11427;SDS011;5770;44.504;11.346;2023-04-03T15:43:20;2.20;;;1.50;;
11427;SDS011;5770;44.504;11.346;2023-04-03T15:45:48;5.45;;;1.73;;
11427;SDS011;5770;44.504;11.346;2023-04-03T15:48:16;3.45;;;1.65;;
11427;SDS011;5770;44.504;11.346;2023-04-03T15:50:44;3.80;;;1.38;;
11427;SDS011;5770;44.504;11.346;2023-04-03T15:53:12;5.13;;;1.60;;
11427;SDS011;5770;44.504;11.346;2023-04-03T15:55:39;2.55;;;1.50;;
11427;SDS011;5770;44.504;11.346;2023-04-03T15:58:06;5.00;;;1.90;;
11427;SDS011;5770;44.504;11.346;2023-04-03T16:00:34;4.03;;;1.80;;
11427;SDS011;5770;44.504;11.346;2023-04-03T16:03:04;4.63;;;1.90;;